Time;durP1;ratioP1;P1;durP2;ratioP2;P2;SDS_P1;SDS_P2;PMS_P1;PMS_P2;Temp;Humidity;BMP_temperature;BMP_pressure;BME280_temperature;BME280_humidity;BME280_pressure;Samples;Min_cycle;Max_cycle;Signal;HPM_P1;HPM_P2
2022/11/13 07:33:00;;;;;;;28.45;12.85;;;;;;;2.27;84.07;97160.13;2212770;22;21034;-61
2022/11/13 07:34:02;;;;;;;29.45;14.38;;;;;;;3.23;81.48;97174.25;2099804;28;20649;-62
2022/11/13 07:35:04;;;;;;;38.35;18.48;;;;;;;3.91;79.07;97166.78;2098904;28;20851;-63
2022/11/13 07:36:06;;;;;;;52.20;23.83;;;;;;;4.37;77.22;97168.00;2095455;28;20207;-62
2022/11/13 07:37:08;;;;;;;104.30;36.60;;;;;;;4.77;75.19;97168.41;2097692;28;20689;-63
2022/11/13 07:38:09;;;;;;;87.25;34.15;;;;;;;5.11;73.73;97173.94;2100384;28;20226;-63
2022/11/13 07:39:11;;;;;;;42.63;17.77;;;;;;;5.36;72.71;97178.78;2100430;28;20203;-63
2022/11/13 07:40:12;;;;;;;34.83;12.10;;;;;;;5.09;73.95;97177.44;2095631;28;20756;-63
2022/11/13 07:41:13;;;;;;;24.63;7.72;;;;;;;5.30;73.04;97184.06;2097693;28;21200;-63
2022/11/13 07:42:15;;;;;;;14.68;7.47;;;;;;;5.09;73.68;97165.34;2099391;28;20206;-63
2022/11/13 07:43:16;;;;;;;10.88;6.00;;;;;;;5.80;71.62;97179.81;2099906;28;20218;-63
2022/11/13 07:44:18;;;;;;;17.48;6.88;;;;;;;6.07;69.84;97176.75;2095655;28;20565;-64
2022/11/13 07:45:39;;;;;;;12.05;6.20;;;;;;;6.19;69.24;97158.38;2099006;28;20200;-64
2022/11/13 07:46:41;;;;;;;13.93;6.88;;;;;;;6.65;68.59;97165.28;2099585;28;20290;-64
2022/11/13 07:47:42;;;;;;;17.85;7.40;;;;;;;7.26;67.03;97167.41;2098377;28;20680;-64
2022/11/13 07:48:43;;;;;;;12.10;6.53;;;;;;;7.56;65.58;97159.75;2100410;28;20306;-64
2022/11/13 07:54:37;;;;;;;8.10;4.35;;;;;;;8.14;64.45;97162.63;2092721;28;20167;-64
2022/11/13 07:55:42;;;;;;;7.57;4.07;;;;;;;9.23;61.08;97164.75;2098084;28;20558;-64
2022/11/13 07:56:46;;;;;;;7.40;4.18;;;;;;;10.00;59.18;97162.25;2098145;28;20291;-64
2022/11/13 07:57:47;;;;;;;7.88;4.40;;;;;;;10.47;57.58;97163.31;2099302;28;20242;-64
2022/11/13 07:58:48;;;;;;;11.68;5.90;;;;;;;10.99;56.28;97156.13;2097728;28;20250;-63
2022/11/13 07:59:50;;;;;;;10.68;6.75;;;;;;;11.32;55.24;97158.34;2095074;28;20223;-63
2022/11/13 08:00:53;;;;;;;11.35;7.05;;;;;;;11.88;54.25;97151.75;2096355;28;20200;-63
2022/11/13 08:01:57;;;;;;;15.70;9.45;;;;;;;12.78;52.39;97153.13;2096614;28;20286;-63
2022/11/13 08:03:12;;;;;;;17.88;10.75;;;;;;;12.69;50.93;97159.63;2096885;28;20224;-63
2022/11/13 08:04:13;;;;;;;28.27;14.93;;;;;;;12.43;51.14;97157.31;2098997;28;20191;-63
2022/11/13 08:05:15;;;;;;;156.57;61.08;;;;;;;12.27;51.31;97159.75;2098627;28;20649;-63
2022/11/13 08:06:16;;;;;;;70.40;32.53;;;;;;;11.92;52.30;97152.44;2097839;28;20230;-63
2022/11/13 08:07:18;;;;;;;102.38;43.25;;;;;;;10.77;53.56;97151.72;2098454;28;20237;-63
2022/11/13 08:08:19;;;;;;;61.90;31.40;;;;;;;10.56;55.11;97157.75;2098395;28;20651;-63
2022/11/13 08:09:25;;;;;;;55.65;27.08;;;;;;;11.74;53.10;97157.56;2098007;28;20199;-63
2022/11/13 08:10:27;;;;;;;63.85;31.48;;;;;;;11.79;51.70;97146.88;2097349;28;20280;-63
2022/11/13 08:11:29;;;;;;;46.95;24.30;;;;;;;10.84;54.05;97156.72;2098696;28;20298;-63
2022/11/13 08:12:30;;;;;;;42.95;21.38;;;;;;;11.65;52.77;97162.31;2098124;28;20350;-65
2022/11/13 08:13:33;;;;;;;30.45;17.25;;;;;;;11.94;52.55;97153.25;2099336;28;20300;-63
2022/11/13 08:14:38;;;;;;;27.73;16.90;;;;;;;11.71;51.91;97159.44;2098087;28;20561;-63
2022/11/13 08:15:40;;;;;;;25.48;14.00;;;;;;;10.54;54.39;97160.41;2098853;28;20656;-63
2022/11/13 08:16:41;;;;;;;17.75;12.00;;;;;;;10.50;55.47;97156.22;2098015;28;20721;-62
2022/11/13 08:17:42;;;;;;;17.00;11.10;;;;;;;10.71;55.21;97145.88;2094354;28;20492;-62
2022/11/13 08:18:44;;;;;;;15.45;9.60;;;;;;;11.91;51.77;97153.38;2096178;28;20228;-62
2022/11/13 08:19:45;;;;;;;15.50;9.10;;;;;;;11.59;52.57;97156.41;2097104;28;20227;-62
2022/11/13 08:20:46;;;;;;;14.00;8.32;;;;;;;11.13;53.45;97155.59;2101627;28;20278;-62
2022/11/13 08:21:48;;;;;;;12.10;7.70;;;;;;;11.21;53.13;97156.19;2094942;28;20593;-62
2022/11/13 08:22:49;;;;;;;16.02;8.68;;;;;;;10.78;54.95;97155.22;2094361;28;20247;-62
2022/11/13 08:23:51;;;;;;;10.73;7.30;;;;;;;11.15;53.80;97143.34;2098872;28;20317;-62
2022/11/13 08:24:56;;;;;;;13.07;8.38;;;;;;;11.27;54.52;97160.28;2100064;28;21109;-62
2022/11/13 08:26:03;;;;;;;8.95;6.05;;;;;;;10.72;54.61;97150.22;2099899;28;20207;-63
2022/11/13 08:27:05;;;;;;;8.73;5.50;;;;;;;9.99;58.01;97160.56;2098846;28;20666;-62
2022/11/13 08:28:07;;;;;;;13.50;6.85;;;;;;;10.43;57.61;97158.19;2097517;28;20197;-62
2022/11/13 08:29:13;;;;;;;7.60;5.13;;;;;;;10.97;56.71;97154.50;2097912;28;20196;-62
2022/11/13 08:30:15;;;;;;;8.45;6.15;;;;;;;11.49;55.97;97152.47;2098879;28;20287;-62
2022/11/13 08:31:16;;;;;;;10.07;6.25;;;;;;;12.01;54.61;97149.50;2098199;28;20223;-62
2022/11/13 08:32:18;;;;;;;7.68;5.63;;;;;;;12.33;53.90;97135.91;2097210;28;20287;-63
2022/11/13 08:33:20;;;;;;;9.20;5.20;;;;;;;13.30;51.87;97130.63;2098002;28;20551;-62
2022/11/13 08:34:25;;;;;;;8.32;5.60;;;;;;;13.69;51.00;97145.41;2094997;28;21098;-62
2022/11/13 08:35:26;;;;;;;6.25;4.72;;;;;;;14.62;49.79;97138.06;2096335;28;20199;-62
2022/11/13 08:36:30;;;;;;;8.98;5.30;;;;;;;14.88;48.41;97133.22;2095009;28;20765;-62
2022/11/13 08:37:32;;;;;;;6.75;5.15;;;;;;;13.68;50.33;97136.66;2097856;28;20218;-62
2022/11/13 08:38:33;;;;;;;5.93;4.20;;;;;;;14.45;49.48;97136.31;2099292;28;20227;-62
2022/11/13 08:39:34;;;;;;;7.85;5.03;;;;;;;13.91;50.44;97137.28;2098158;28;20240;-62
2022/11/13 08:40:36;;;;;;;7.47;3.88;;;;;;;13.52;50.43;97126.09;2099208;28;20661;-62
2022/11/13 08:41:37;;;;;;;6.05;4.25;;;;;;;13.59;50.41;97125.78;2098226;28;20231;-62
2022/11/13 08:42:39;;;;;;;7.15;4.50;;;;;;;14.03;49.75;97113.06;2098170;28;20238;-62
2022/11/13 08:43:40;;;;;;;8.07;4.82;;;;;;;13.58;50.54;97119.69;2092872;28;20584;-62
2022/11/13 08:44:41;;;;;;;5.95;4.50;;;;;;;13.04;51.40;97115.22;2090661;28;20219;-62
2022/11/13 08:45:46;;;;;;;7.25;4.40;;;;;;;14.59;49.76;97123.31;2092889;28;20257;-62
2022/11/13 08:46:48;;;;;;;5.10;4.10;;;;;;;14.16;49.45;97125.56;2098993;28;20223;-62
2022/11/13 08:47:49;;;;;;;8.38;4.88;;;;;;;14.50;49.97;97121.16;2099474;28;20297;-62
2022/11/13 08:48:51;;;;;;;7.15;5.47;;;;;;;16.10;46.29;97121.06;2093222;28;20316;-63
2022/11/13 08:49:53;;;;;;;11.20;5.15;;;;;;;16.32;45.34;97102.22;2091392;28;20214;-63
2022/11/13 08:50:56;;;;;;;8.10;5.72;;;;;;;16.91;44.90;97111.81;2094244;28;20274;-62
2022/11/13 08:51:57;;;;;;;7.88;6.10;;;;;;;17.16;43.46;97119.03;2092287;28;20729;-62
2022/11/13 08:52:59;;;;;;;5.72;4.53;;;;;;;16.93;43.94;97118.69;2091443;28;20224;-63
2022/11/13 08:54:01;;;;;;;6.70;4.75;;;;;;;16.29;44.52;97113.78;2092670;28;20227;-63
2022/11/13 08:55:03;;;;;;;6.90;4.57;;;;;;;16.70;44.29;97114.81;2091710;28;20241;-63
2022/11/13 08:56:04;;;;;;;9.38;5.72;;;;;;;16.94;44.35;97122.19;2093584;28;20192;-65
2022/11/13 08:57:06;;;;;;;7.85;5.32;;;;;;;15.60;45.85;97112.56;2093191;28;20522;-62
2022/11/13 08:58:08;;;;;;;12.48;4.70;;;;;;;14.59;48.84;97119.81;2091747;28;20199;-63
2022/11/13 08:59:10;;;;;;;7.10;4.57;;;;;;;15.23;48.24;97120.75;2092432;28;20287;-63
2022/11/13 09:00:12;;;;;;;7.70;5.07;;;;;;;15.34;47.83;97099.09;2092458;28;20205;-62
2022/11/13 09:01:13;;;;;;;7.18;4.20;;;;;;;13.58;50.95;97114.44;2092746;28;20615;-62
2022/11/13 09:02:14;;;;;;;7.60;4.60;;;;;;;13.34;50.84;97108.59;2090521;28;20228;-62
2022/11/13 09:03:16;;;;;;;6.38;4.70;;;;;;;12.96;53.56;97119.13;2090916;28;20197;-62
2022/11/13 09:04:17;;;;;;;6.18;4.90;;;;;;;15.62;48.54;97111.53;2089084;28;20279;-62
2022/11/13 09:05:19;;;;;;;7.20;4.30;;;;;;;15.73;46.99;97112.69;2091568;28;20203;-62
2022/11/13 09:06:20;;;;;;;7.25;5.20;;;;;;;15.05;48.42;97122.63;2093379;28;20228;-66
2022/11/13 09:07:22;;;;;;;6.28;5.05;;;;;;;15.53;48.34;97109.44;2091781;28;20645;-66
2022/11/13 09:08:29;;;;;;;10.88;4.88;;;;;;;16.67;45.98;97124.72;2093082;28;20236;-66
2022/11/13 09:09:34;;;;;;;10.65;8.70;;;;;;;17.64;43.83;97118.59;2091427;28;20239;-64
2022/11/13 09:10:35;;;;;;;7.55;5.85;;;;;;;15.08;47.84;97122.44;2093394;28;20232;-65
2022/11/13 09:11:37;;;;;;;8.93;6.00;;;;;;;15.53;47.84;97091.00;2089194;28;20306;-66
2022/11/13 09:12:38;;;;;;;6.78;5.32;;;;;;;15.41;48.60;97118.84;2091557;28;20254;-66
2022/11/13 09:13:39;;;;;;;8.95;5.50;;;;;;;15.74;48.19;97103.84;2091438;28;20211;-66
2022/11/13 09:14:49;;;;;;;7.72;5.65;;;;;;;16.57;46.54;97122.66;2092321;28;20349;-66
2022/11/13 09:15:50;;;;;;;7.95;5.88;;;;;;;17.52;44.67;97124.66;2091843;28;20234;-66
2022/11/13 09:16:51;;;;;;;10.73;6.10;;;;;;;17.58;44.28;97098.69;2091932;28;20203;-66
2022/11/13 09:17:57;;;;;;;8.45;6.03;;;;;;;18.11;43.21;97122.50;2092854;28;20308;-66
2022/11/13 09:18:59;;;;;;;9.43;5.95;;;;;;;17.97;42.43;97108.53;2096359;28;20195;-66
2022/11/13 09:20:00;;;;;;;8.40;6.80;;;;;;;17.77;43.54;97103.59;2096615;28;20681;-66
2022/11/13 09:21:05;;;;;;;12.32;6.20;;;;;;;17.38;44.87;97115.88;2096307;28;20282;-65
2022/11/13 09:22:07;;;;;;;10.25;5.90;;;;;;;18.61;43.15;97105.91;2090878;28;20224;-65
2022/11/13 09:23:08;;;;;;;8.23;5.38;;;;;;;19.32;41.83;97108.00;2092951;28;20283;-66
2022/11/13 09:24:10;;;;;;;11.82;6.05;;;;;;;19.27;41.11;97108.34;2091882;28;20203;-66
2022/11/13 09:25:11;;;;;;;8.38;5.47;;;;;;;19.19;40.99;97108.91;2092143;28;20373;-66
2022/11/13 09:26:12;;;;;;;8.77;6.30;;;;;;;19.46;40.88;97107.84;2088798;28;20208;-66
2022/11/13 09:27:14;;;;;;;8.38;6.05;;;;;;;19.03;41.37;97098.59;2090377;28;20295;-65
2022/11/13 09:28:15;;;;;;;9.88;5.82;;;;;;;19.17;40.89;97104.69;2093119;28;20283;-65
2022/11/13 09:29:17;;;;;;;8.25;5.85;;;;;;;19.72;40.05;97103.28;2092785;28;20226;-65
2022/11/13 09:30:18;;;;;;;7.47;5.40;;;;;;;19.58;41.06;97106.09;2092447;28;20242;-65
2022/11/13 09:31:20;;;;;;;9.82;6.57;;;;;;;19.75;40.12;97107.50;2092461;28;20812;-65
2022/11/13 09:32:24;;;;;;;7.32;5.45;;;;;;;19.22;41.61;97110.47;2092696;28;20254;-65
2022/11/13 09:33:25;;;;;;;7.82;6.15;;;;;;;19.14;42.18;97095.16;2092199;28;20315;-65
2022/11/13 09:34:27;;;;;;;9.93;5.60;;;;;;;18.43;42.91;97103.59;2092515;28;20197;-65
2022/11/13 09:35:33;;;;;;;6.80;5.05;;;;;;;18.42;42.53;97101.06;2093284;28;20192;-65
2022/11/13 09:36:35;;;;;;;9.68;6.63;;;;;;;18.65;42.92;97104.78;2089053;28;20528;-65
2022/11/13 09:37:37;;;;;;;7.60;5.05;;;;;;;19.98;40.88;97089.06;2088763;28;20713;-65
2022/11/13 09:38:39;;;;;;;7.40;5.90;;;;;;;17.61;44.13;97102.94;2094283;28;20259;-65
2022/11/13 09:39:40;;;;;;;11.63;6.60;;;;;;;17.25;45.88;97107.03;2093028;28;20812;-65
2022/11/13 09:40:44;;;;;;;7.85;5.95;;;;;;;17.35;45.61;97107.31;2093198;28;20624;-65
2022/11/13 09:41:58;;;;;;;7.22;5.60;;;;;;;18.24;44.50;97095.25;2092495;28;20764;-65
2022/11/13 09:43:03;;;;;;;7.32;5.05;;;;;;;16.58;46.88;97099.75;2093201;28;20269;-65
2022/11/13 09:44:14;;;;;;;8.52;5.72;;;;;;;18.05;44.69;97101.78;2092525;28;20196;-65
2022/11/13 09:45:16;;;;;;;9.25;5.35;;;;;;;18.54;43.95;97092.28;2091365;28;20207;-67
2022/11/13 09:46:58;;;;;;;13.02;6.40;;;;;;;20.28;41.16;97099.13;2092404;28;20200;-66
2022/11/13 09:48:15;;;;;;;9.80;6.22;;;;;;;18.28;43.01;97102.03;2091096;28;20613;-66
2022/11/13 09:49:24;;;;;;;8.30;6.32;;;;;;;19.03;43.06;97095.09;2091913;28;20219;-66
2022/11/13 09:50:29;;;;;;;7.18;4.72;;;;;;;20.65;39.91;97090.94;2091535;28;20500;-66
2022/11/13 09:51:36;;;;;;;8.70;5.68;;;;;;;19.77;41.95;97080.88;2093166;28;20212;-66
2022/11/13 09:52:41;;;;;;;9.43;5.63;;;;;;;19.31;42.51;97090.44;2092001;28;20216;-67
2022/11/13 09:53:43;;;;;;;7.30;4.70;;;;;;;20.78;40.63;97077.56;2091480;28;20312;-66
2022/11/13 09:54:44;;;;;;;11.30;5.38;;;;;;;21.22;38.99;97074.97;2088519;28;20228;-66
2022/11/13 09:56:07;;;;;;;6.90;4.90;;;;;;;19.62;41.44;97082.88;2088209;28;20220;-67
2022/11/13 09:57:24;;;;;;;6.57;4.25;;;;;;;21.08;39.84;97077.91;2091585;28;20207;-67
2022/11/13 09:58:48;;;;;;;8.10;4.40;;;;;;;20.95;38.28;97084.22;2092015;28;20558;-67
2022/11/13 09:59:59;;;;;;;5.97;4.15;;;;;;;20.04;40.36;97081.47;2092960;28;20227;-67
2022/11/13 10:01:01;;;;;;;7.88;4.20;;;;;;;19.32;41.41;97082.38;2092667;28;20613;-67
2022/11/13 10:02:17;;;;;;;5.78;3.75;;;;;;;19.22;42.43;97084.00;2091992;28;20268;-67
2022/11/13 10:03:30;;;;;;;7.25;4.22;;;;;;;21.00;40.04;97081.16;2090780;28;20666;-67
2022/11/13 10:05:02;;;;;;;5.38;3.53;;;;;;;22.10;38.81;97086.34;2092266;28;20207;-67
2022/11/13 10:06:26;;;;;;;7.40;4.28;;;;;;;22.62;36.98;97086.38;2092137;28;20566;-67
2022/11/13 10:07:53;;;;;;;5.38;3.85;;;;;;;22.83;37.28;97078.34;2092819;28;20701;-67
2022/11/13 10:09:18;;;;;;;13.60;3.88;;;;;;;23.39;35.57;97078.78;2094305;28;20543;-65
2022/11/13 10:10:41;;;;;;;6.05;4.00;;;;;;;23.31;35.88;97084.81;2092564;28;20291;-64
2022/11/13 10:11:53;;;;;;;6.82;3.70;;;;;;;23.39;35.32;97084.13;2088712;28;20609;-64
2022/11/13 10:12:58;;;;;;;5.28;3.45;;;;;;;22.98;35.68;97086.81;2089464;28;20632;-65
2022/11/13 10:14:06;;;;;;;5.20;3.83;;;;;;;21.79;37.29;97074.81;2092776;28;20556;-64
2022/11/13 10:15:10;;;;;;;6.65;4.00;;;;;;;22.31;36.91;97072.22;2088500;28;20211;-64
2022/11/13 10:16:29;;;;;;;4.95;3.47;;;;;;;23.29;36.08;97080.59;2089775;28;20663;-64
2022/11/13 10:17:38;;;;;;;6.30;3.75;;;;;;;23.48;36.11;97085.13;2092255;28;20245;-64
2022/11/13 10:18:42;;;;;;;5.63;4.07;;;;;;;23.81;35.64;97080.34;2096670;28;20203;-64
2022/11/13 10:20:19;;;;;;;5.68;3.65;;;;;;;23.80;35.45;97081.31;2096915;28;20598;-64
2022/11/13 10:21:44;;;;;;;6.95;4.63;;;;;;;22.76;36.52;97063.88;2086397;28;20200;-64
2022/11/13 10:22:55;;;;;;;5.57;4.15;;;;;;;23.58;36.05;97079.78;2092839;28;20717;-64
2022/11/13 10:24:04;;;;;;;7.70;4.25;;;;;;;24.14;35.23;97078.25;2090588;28;20603;-64
2022/11/13 10:25:18;;;;;;;6.15;3.80;;;;;;;23.77;36.05;97074.47;2091918;28;20250;-66
2022/11/13 10:26:23;;;;;;;6.05;4.00;;;;;;;24.26;35.41;97076.25;2093628;28;20196;-64
2022/11/13 10:27:25;;;;;;;9.73;3.60;;;;;;;25.22;33.85;97073.31;2092732;28;20682;-64
2022/11/13 10:28:30;;;;;;;3.88;3.35;;;;;;;25.57;32.59;97073.53;2092461;28;20202;-64
2022/11/13 10:29:52;;;;;;;4.97;3.30;;;;;;;25.48;32.40;97083.31;2092122;28;20204;-65
2022/11/13 10:30:54;;;;;;;5.43;3.67;;;;;;;25.53;32.37;97074.84;2093335;28;20200;-65
2022/11/13 10:31:57;;;;;;;4.18;2.92;;;;;;;25.60;32.33;97070.56;2092707;28;20207;-65
2022/11/13 10:33:04;;;;;;;4.75;3.45;;;;;;;25.36;32.51;97047.13;2091546;28;20215;-64
2022/11/13 10:34:06;;;;;;;4.70;3.42;;;;;;;25.75;32.64;97047.66;2091182;28;20257;-64
2022/11/13 10:35:41;;;;;;;8.15;3.45;;;;;;;25.12;33.07;97069.06;2091704;28;20211;-64
2022/11/13 10:37:07;;;;;;;5.78;3.85;;;;;;;25.66;32.21;97071.78;2072457;28;20205;-64
2022/11/13 10:38:49;;;;;;;3.90;3.08;;;;;;;25.72;31.81;97074.69;2094472;28;20309;-65
2022/11/13 10:39:50;;;;;;;5.82;3.50;;;;;;;25.49;31.94;97071.63;2070528;28;20228;-65
2022/11/13 10:40:51;;;;;;;8.25;3.97;;;;;;;24.10;33.27;97060.84;2070556;28;20334;-65
2022/11/13 10:41:54;;;;;;;5.80;4.10;;;;;;;25.08;32.61;97053.31;2069965;28;20202;-64
2022/11/13 10:43:06;;;;;;;9.35;8.27;;;;;;;25.19;32.25;97056.75;2069636;28;20264;-64
2022/11/13 10:44:34;;;;;;;7.60;4.95;;;;;;;24.35;33.14;97055.84;2061367;28;20628;-65
2022/11/13 10:45:35;;;;;;;4.70;3.45;;;;;;;21.57;36.17;97059.81;2065586;28;20198;-64
2022/11/13 10:46:37;;;;;;;7.60;3.30;;;;;;;18.75;38.14;97062.63;2070555;28;20232;-65
2022/11/13 10:47:46;;;;;;;5.50;3.90;;;;;;;17.68;41.06;97058.50;2067781;28;20222;-64
2022/11/13 10:49:20;;;;;;;5.07;3.40;;;;;;;16.51;43.23;97027.28;2069441;28;20434;-64
2022/11/13 10:50:29;;;;;;;5.63;3.40;;;;;;;16.02;43.60;97052.22;2069265;28;20696;-65
2022/11/13 10:51:34;;;;;;;5.95;4.35;;;;;;;18.08;42.62;97053.16;2068397;28;20305;-64
2022/11/13 10:52:44;;;;;;;6.90;4.05;;;;;;;18.66;39.84;97039.50;2067452;28;20297;-65
2022/11/13 10:53:46;;;;;;;7.63;4.03;;;;;;;19.91;39.34;97035.69;2059802;28;20253;-65
2022/11/13 10:54:48;;;;;;;6.90;4.47;;;;;;;20.60;37.63;97037.41;2059874;28;20230;-64
2022/11/13 10:55:54;;;;;;;11.20;3.97;;;;;;;22.17;36.07;97044.16;2068260;28;20284;-64
2022/11/13 10:57:15;;;;;;;5.63;3.47;;;;;;;22.14;35.39;97029.28;2068924;28;20202;-64
2022/11/13 10:58:18;;;;;;;6.10;3.70;;;;;;;20.78;35.91;97040.44;2069029;28;20313;-64
2022/11/13 10:59:20;;;;;;;7.13;4.30;;;;;;;18.42;39.81;97043.78;2067988;28;20264;-65
2022/11/13 11:00:28;;;;;;;11.27;7.50;;;;;;;19.71;38.78;97039.81;2070640;28;20284;-64
2022/11/13 11:01:30;;;;;;;6.00;3.95;;;;;;;19.93;38.24;97031.09;2068283;28;20197;-64
2022/11/13 11:02:31;;;;;;;4.93;3.35;;;;;;;17.95;40.49;97039.97;2061277;28;20236;-64
2022/11/13 11:03:32;;;;;;;38.00;22.42;;;;;;;18.16;41.76;97000.66;2062325;28;20214;-64
2022/11/13 11:04:37;;;;;;;6.65;4.00;;;;;;;18.04;40.81;97031.41;2069429;28;20284;-64
2022/11/13 11:05:38;;;;;;;10.45;4.40;;;;;;;17.17;43.59;97027.53;2070296;28;20370;-64
2022/11/13 11:06:40;;;;;;;6.35;4.15;;;;;;;17.86;41.51;97024.72;2068751;28;20825;-64
2022/11/13 11:08:08;;;;;;;5.72;3.95;;;;;;;19.28;40.27;96996.19;2068215;28;20256;-64
2022/11/13 11:09:17;;;;;;;6.88;4.05;;;;;;;16.77;42.21;97017.72;2069229;28;20260;-64
2022/11/13 11:10:33;;;;;;;6.45;3.90;;;;;;;18.53;40.94;97008.63;2069033;28;20660;-64
2022/11/13 11:13:19;;;;;;;6.68;4.00;;;;;;;16.95;43.96;97010.44;2069997;28;20734;-64
2022/11/13 11:14:56;;;;;;;6.90;4.07;;;;;;;19.23;39.37;97003.63;2073296;28;20217;-64
2022/11/13 11:16:00;;;;;;;9.68;3.33;;;;;;;17.87;42.91;97000.00;2092001;28;20236;-66
2022/11/13 11:17:04;;;;;;;6.25;3.67;;;;;;;20.06;39.81;96993.88;2094787;28;20282;-64
2022/11/13 11:18:11;;;;;;;7.40;4.47;;;;;;;20.58;37.28;96999.53;2090874;28;20284;-64
2022/11/13 11:19:14;;;;;;;12.00;3.75;;;;;;;20.92;37.72;96982.75;2092195;28;20204;-65
2022/11/13 11:20:21;;;;;;;5.25;3.50;;;;;;;20.46;38.48;96987.28;2095829;28;20282;-65
2022/11/13 11:21:32;;;;;;;6.88;3.30;;;;;;;21.97;35.99;96984.69;2095725;28;20204;-64
2022/11/13 11:22:38;;;;;;;6.40;3.42;;;;;;;21.78;35.29;96972.13;2091077;28;20405;-65
2022/11/13 11:24:01;;;;;;;8.00;3.67;;;;;;;22.09;35.10;96985.44;2089606;28;20552;-64
2022/11/13 11:25:11;;;;;;;5.63;3.65;;;;;;;22.69;35.54;96979.41;2091033;28;20231;-64
2022/11/13 11:26:28;;;;;;;7.00;3.45;;;;;;;17.64;40.16;96976.00;2090601;28;20678;-65
2022/11/13 11:27:45;;;;;;;5.45;4.15;;;;;;;18.10;40.63;96979.94;2090162;28;20579;-64
2022/11/13 11:29:20;;;;;;;6.65;3.67;;;;;;;18.67;39.91;96973.25;2091502;28;20227;-64
2022/11/13 11:30:25;;;;;;;5.53;3.45;;;;;;;18.89;39.35;96974.34;2090814;28;20850;-65
2022/11/13 11:31:29;;;;;;;6.93;3.35;;;;;;;17.19;42.69;96975.50;2092923;28;20227;-64
2022/11/13 11:32:47;;;;;;;13.70;3.30;;;;;;;16.44;43.40;96969.69;2092551;28;20654;-65
2022/11/13 11:33:58;;;;;;;10.68;4.03;;;;;;;18.96;39.87;96969.47;2090117;28;20232;-65
2022/11/13 11:35:07;;;;;;;5.43;3.88;;;;;;;16.90;41.45;96951.84;2093023;28;20901;-66
2022/11/13 11:36:37;;;;;;;9.90;4.22;;;;;;;17.59;43.02;96955.19;2095291;28;20828;-65
2022/11/13 11:37:54;;;;;;;6.20;3.58;;;;;;;17.57;42.25;96956.25;2093002;28;20220;-65
2022/11/13 11:39:09;;;;;;;6.15;3.50;;;;;;;17.56;42.20;96951.91;2097990;28;20630;-66
2022/11/13 11:40:34;;;;;;;6.97;4.03;;;;;;;17.46;42.80;96954.34;2096310;28;20209;-66
2022/11/13 11:41:45;;;;;;;8.45;3.30;;;;;;;18.82;39.86;96930.78;2092245;28;20242;-68
2022/11/13 11:42:57;;;;;;;6.20;3.80;;;;;;;17.58;41.34;96956.13;2091996;28;21087;-66
2022/11/13 11:44:13;;;;;;;6.75;3.42;;;;;;;18.58;41.00;96948.31;2088328;28;20236;-67
2022/11/13 11:45:31;;;;;;;6.55;3.45;;;;;;;17.23;42.14;96935.63;2088925;28;20223;-67
2022/11/13 11:46:34;;;;;;;9.65;4.15;;;;;;;17.60;41.90;96938.41;2093265;28;20578;-67
2022/11/13 11:47:36;;;;;;;9.77;4.43;;;;;;;17.92;42.12;96929.19;2095085;28;20249;-67
2022/11/13 11:48:38;;;;;;;6.13;3.90;;;;;;;19.74;40.35;96939.75;2095676;28;20282;-67
2022/11/13 11:49:39;;;;;;;4.70;3.33;;;;;;;20.87;37.46;96927.38;2092635;28;20548;-68
2022/11/13 11:51:07;;;;;;;12.10;8.20;;;;;;;21.30;37.59;96938.91;2093354;28;20203;-68
2022/11/13 11:52:14;;;;;;;6.43;3.90;;;;;;;20.67;37.02;96928.97;2087730;28;20208;-70
2022/11/13 11:53:24;;;;;;;6.72;3.65;;;;;;;19.79;36.92;96909.41;2089667;28;20227;-70
2022/11/13 11:54:45;;;;;;;5.63;3.40;;;;;;;19.19;39.86;96925.44;2090902;28;20227;-69
2022/11/13 11:55:53;;;;;;;5.85;3.50;;;;;;;18.22;40.49;96902.44;2088865;28;20286;-69
2022/11/13 11:57:02;;;;;;;8.68;4.60;;;;;;;19.29;40.18;96920.25;2095724;28;20685;-69
2022/11/13 11:58:28;;;;;;;7.60;4.68;;;;;;;18.14;39.94;96915.34;2094498;28;20215;-69
2022/11/13 11:59:48;;;;;;;16.08;4.88;;;;;;;18.72;40.83;96905.00;2091129;28;20844;-69
2022/11/13 12:00:53;;;;;;;8.27;4.55;;;;;;;18.44;39.32;96907.00;2091707;28;20549;-69
2022/11/13 12:02:07;;;;;;;4.63;3.00;;;;;;;16.89;42.31;96915.88;2091019;28;20752;-69
2022/11/13 12:03:17;;;;;;;5.03;3.28;;;;;;;16.94;43.33;96903.28;2092043;28;20686;-69
2022/11/13 12:04:37;;;;;;;7.70;4.43;;;;;;;19.29;40.62;96894.66;2089611;28;20486;-68
2022/11/13 12:05:50;;;;;;;8.10;4.38;;;;;;;18.47;40.63;96905.09;2088543;28;20200;-68
2022/11/13 12:07:26;;;;;;;5.93;3.63;;;;;;;17.43;41.67;96904.38;2088349;28;20193;-68
2022/11/13 12:08:42;;;;;;;6.05;4.15;;;;;;;15.91;45.93;96900.13;2090955;28;20235;-68
2022/11/13 12:10:05;;;;;;;6.85;3.85;;;;;;;16.57;45.06;96898.59;2098629;28;20206;-68
2022/11/13 12:11:29;;;;;;;11.88;4.50;;;;;;;16.75;44.40;96895.69;2095066;28;20207;-68
2022/11/13 12:12:49;;;;;;;8.07;4.30;;;;;;;18.44;43.08;96890.31;2088951;28;20246;-68
2022/11/13 12:14:34;;;;;;;6.32;3.75;;;;;;;19.66;40.43;96897.09;2090141;28;20219;-68
2022/11/13 12:15:48;;;;;;;16.00;7.25;;;;;;;18.38;40.26;96859.88;2093154;28;20283;-69
2022/11/13 12:17:16;;;;;;;9.77;5.38;;;;;;;19.86;39.08;96885.00;2094912;28;20246;-69
2022/11/13 12:18:35;;;;;;;8.07;3.97;;;;;;;21.03;37.00;96879.19;2093220;28;20473;-69
2022/11/13 12:19:59;;;;;;;6.80;4.05;;;;;;;17.42;42.75;96882.44;2093583;28;20196;-69
2022/11/13 12:21:10;;;;;;;6.00;3.80;;;;;;;19.60;40.38;96889.63;2095602;28;20206;-69
2022/11/13 12:22:35;;;;;;;6.18;4.03;;;;;;;21.34;37.66;96882.78;2095253;28;20469;-68
2022/11/13 12:23:55;;;;;;;8.02;3.55;;;;;;;22.24;36.52;96880.38;2098041;28;20544;-69
2022/11/13 12:25:21;;;;;;;6.25;4.47;;;;;;;22.44;35.76;96864.53;2101963;28;20920;-69
2022/11/13 12:26:45;;;;;;;5.95;3.92;;;;;;;22.59;35.50;96878.25;2098981;28;20685;-69
2022/11/13 12:28:03;;;;;;;6.45;4.43;;;;;;;22.84;35.29;96866.22;2094657;28;20226;-69
2022/11/13 12:29:24;;;;;;;6.72;4.07;;;;;;;21.68;35.97;96874.59;2092509;28;20288;-69
2022/11/13 12:30:48;;;;;;;6.07;3.72;;;;;;;22.68;35.66;96866.78;2092094;28;20222;-69
2022/11/13 12:32:16;;;;;;;8.00;4.32;;;;;;;22.08;35.82;96864.97;2097531;28;20231;-69
2022/11/13 12:33:40;;;;;;;8.32;4.43;;;;;;;22.75;35.39;96856.41;2091521;28;20550;-70
2022/11/13 12:34:57;;;;;;;7.32;3.70;;;;;;;21.77;35.70;96856.19;2093738;28;20192;-70
2022/11/13 12:36:01;;;;;;;6.70;3.83;;;;;;;21.71;36.90;96856.69;2098706;28;20186;-70
2022/11/13 12:37:10;;;;;;;6.53;3.50;;;;;;;21.37;37.41;96850.63;2097894;28;20255;-70
2022/11/13 12:38:35;;;;;;;5.40;3.22;;;;;;;22.40;36.45;96857.78;2097474;28;20650;-71
2022/11/13 12:40:00;;;;;;;7.00;3.70;;;;;;;22.88;36.48;96862.31;2092472;28;20663;-69
2022/11/13 12:41:34;;;;;;;6.82;4.80;;;;;;;19.65;39.34;96850.38;2092172;28;20200;-69
2022/11/13 12:42:45;;;;;;;28.38;4.65;;;;;;;21.25;39.12;96845.53;2076361;28;20558;-68
2022/11/13 12:44:22;;;;;;;6.15;3.90;;;;;;;21.34;37.99;96848.25;2093215;28;20232;-69
2022/11/13 12:45:35;;;;;;;8.05;4.43;;;;;;;21.73;39.27;96847.63;2089510;28;20231;-69
2022/11/13 12:46:39;;;;;;;6.38;3.80;;;;;;;22.21;39.34;96848.75;2092818;28;20196;-69
2022/11/13 12:47:41;;;;;;;5.60;3.60;;;;;;;22.69;38.88;96846.31;2092811;28;20333;-69
2022/11/13 12:48:45;;;;;;;6.82;4.50;;;;;;;22.67;39.17;96849.97;2092755;28;20234;-69
2022/11/13 12:49:58;;;;;;;6.15;4.20;;;;;;;23.13;38.86;96834.28;2093908;28;20223;-69
2022/11/13 12:51:06;;;;;;;6.40;4.53;;;;;;;22.87;38.67;96839.34;2089594;28;20204;-69
2022/11/13 12:52:22;;;;;;;5.30;3.90;;;;;;;23.19;38.32;96842.69;2090905;28;20641;-69
2022/11/13 12:53:27;;;;;;;5.97;4.30;;;;;;;22.70;38.13;96829.38;2093855;28;20738;-69
2022/11/13 12:54:34;;;;;;;5.07;4.10;;;;;;;22.56;39.17;96844.78;2101208;28;20285;-69
2022/11/13 12:55:38;;;;;;;5.93;4.38;;;;;;;22.83;38.40;96829.97;2093232;28;20219;-69
2022/11/13 12:56:43;;;;;;;6.55;4.10;;;;;;;22.93;38.41;96843.25;2092610;28;20208;-69
2022/11/13 12:57:46;;;;;;;5.35;4.28;;;;;;;22.90;38.69;96832.88;2096049;28;20234;-69
2022/11/13 12:59:12;;;;;;;6.38;4.15;;;;;;;22.97;38.05;96842.00;2096693;28;20203;-69
2022/11/13 13:00:34;;;;;;;5.50;3.80;;;;;;;22.84;38.90;96812.97;2093254;28;20200;-69
2022/11/13 13:01:44;;;;;;;5.47;3.80;;;;;;;22.98;38.51;96833.00;2092238;28;20204;-69
2022/11/13 13:03:03;;;;;;;7.43;4.70;;;;;;;23.21;37.96;96825.59;2089017;28;20223;-70